Time;durP1;ratioP1;P1;durP2;ratioP2;P2;SDS_P1;SDS_P2;PMS_P1;PMS_P2;Temp;Humidity;BMP_temperature;BMP_pressure;BME280_temperature;BME280_humidity;BME280_pressure;Samples;Min_cycle;Max_cycle;Signal;HPM_P1;HPM_P2
2023/04/07 00:02:17;;;;;;;7.27;6.27;;;;;;;;;;5014107;28;20239;-85
2023/04/07 00:04:44;;;;;;;10.27;7.83;;;;;;;;;;5014543;28;20802;-84
2023/04/07 00:07:11;;;;;;;11.27;7.77;;;;;;;;;;5014166;28;20289;-84
2023/04/07 00:09:40;;;;;;;9.63;7.87;;;;;;;;;;5014496;28;20219;-84
2023/04/07 00:12:07;;;;;;;9.20;7.40;;;;;;;;;;5013796;28;20242;-84
2023/04/07 00:14:34;;;;;;;11.30;7.37;;;;;;;;;;5014337;28;20208;-84
2023/04/07 00:17:01;;;;;;;8.93;7.20;;;;;;;;;;5013889;28;20235;-84
2023/04/07 00:19:28;;;;;;;8.00;7.13;;;;;;;;;;5013313;28;20219;-84
2023/04/07 00:21:55;;;;;;;8.30;7.20;;;;;;;;;;5013646;28;20742;-83
2023/04/07 00:24:22;;;;;;;11.23;7.93;;;;;;;;;;5014684;28;20337;-83
2023/04/07 00:26:51;;;;;;;9.77;7.43;;;;;;;;;;5013570;28;20719;-83
2023/04/07 00:29:18;;;;;;;10.30;7.37;;;;;;;;;;5014347;28;20477;-83
2023/04/07 00:31:45;;;;;;;10.27;7.47;;;;;;;;;;5013410;28;20258;-83
2023/04/07 00:34:12;;;;;;;10.83;7.60;;;;;;;;;;5013708;28;20203;-83
2023/04/07 00:36:39;;;;;;;11.47;7.73;;;;;;;;;;5010286;28;20235;-83
2023/04/07 00:39:06;;;;;;;10.33;7.70;;;;;;;;;;5014302;28;20207;-83
2023/04/07 00:41:34;;;;;;;9.60;7.47;;;;;;;;;;5010815;28;20231;-83
2023/04/07 00:44:03;;;;;;;10.23;7.23;;;;;;;;;;4994460;28;20228;-83
2023/04/07 00:46:30;;;;;;;10.03;6.83;;;;;;;;;;5008226;28;20727;-83
2023/04/07 00:48:57;;;;;;;8.37;6.80;;;;;;;;;;5004684;28;20211;-84
2023/04/07 00:51:25;;;;;;;8.77;7.30;;;;;;;;;;4993936;28;20239;-83
2023/04/07 00:53:53;;;;;;;8.50;6.80;;;;;;;;;;4994436;28;20204;-84
2023/04/07 00:56:20;;;;;;;10.17;6.87;;;;;;;;;;4999510;28;20246;-84
2023/04/07 00:58:47;;;;;;;8.67;7.20;;;;;;;;;;5016656;28;20192;-84
2023/04/07 01:01:19;;;;;;;9.40;7.27;;;;;;;;;;5004524;28;20240;-83
2023/04/07 01:03:49;;;;;;;8.07;6.93;;;;;;;;;;5006669;28;20255;-83
2023/04/07 01:06:18;;;;;;;10.17;7.77;;;;;;;;;;5010783;28;20259;-83
2023/04/07 01:08:50;;;;;;;8.63;7.37;;;;;;;;;;4996492;28;20195;-83
2023/04/07 01:11:20;;;;;;;8.97;6.40;;;;;;;;;;5004364;28;20727;-84
2023/04/07 01:13:49;;;;;;;9.27;7.27;;;;;;;;;;4995505;28;20711;-84
2023/04/07 01:16:23;;;;;;;6.97;6.00;;;;;;;;;;5001664;28;20232;-83
2023/04/07 01:18:52;;;;;;;8.30;6.77;;;;;;;;;;4993356;28;20201;-83
2023/04/07 01:21:20;;;;;;;7.80;6.63;;;;;;;;;;4992871;28;20232;-86
2023/04/07 01:23:53;;;;;;;7.97;6.37;;;;;;;;;;4993015;28;20212;-84
2023/04/07 01:26:22;;;;;;;9.30;6.40;;;;;;;;;;4992241;28;20238;-84
2023/04/07 01:29:06;;;;;;;9.30;6.50;;;;;;;;;;5000089;28;20206;-84
2023/04/07 01:31:35;;;;;;;8.80;6.97;;;;;;;;;;5010705;28;20234;-83
2023/04/07 01:34:03;;;;;;;7.33;6.47;;;;;;;;;;4992974;28;20215;-83
2023/04/07 01:36:32;;;;;;;9.47;6.60;;;;;;;;;;5007333;28;20231;-83
2023/04/07 01:38:59;;;;;;;7.73;6.70;;;;;;;;;;5001713;28;20203;-85
2023/04/07 01:41:27;;;;;;;7.67;6.27;;;;;;;;;;5002173;28;20228;-84
2023/04/07 01:43:55;;;;;;;7.70;6.27;;;;;;;;;;4992951;28;20224;-83
2023/04/07 01:46:22;;;;;;;7.50;6.77;;;;;;;;;;5002107;28;20239;-83
2023/04/07 01:48:52;;;;;;;8.00;6.60;;;;;;;;;;5008078;28;20200;-84
2023/04/07 01:51:20;;;;;;;7.47;6.67;;;;;;;;;;4992377;28;20242;-84
2023/04/07 01:53:48;;;;;;;9.07;7.00;;;;;;;;;;5011934;28;20214;-84
2023/04/07 01:56:15;;;;;;;8.13;7.33;;;;;;;;;;5005335;28;20235;-84
2023/04/07 01:58:42;;;;;;;10.80;6.27;;;;;;;;;;4993379;28;20295;-84
2023/04/07 02:01:09;;;;;;;9.37;6.90;;;;;;;;;;4993412;28;20722;-84
2023/04/07 02:03:39;;;;;;;7.80;7.00;;;;;;;;;;4993185;28;20259;-84
2023/04/07 02:06:10;;;;;;;11.10;7.10;;;;;;;;;;5001157;28;20777;-83
2023/04/07 02:08:38;;;;;;;7.97;6.63;;;;;;;;;;4992889;28;20196;-84
2023/04/07 02:11:06;;;;;;;7.97;6.53;;;;;;;;;;4992840;28;20235;-83
2023/04/07 02:13:34;;;;;;;8.43;6.43;;;;;;;;;;4993772;28;20207;-84
2023/04/07 02:16:02;;;;;;;8.80;6.57;;;;;;;;;;5011146;28;20278;-84
2023/04/07 02:18:31;;;;;;;8.50;6.40;;;;;;;;;;5010550;28;20239;-84
2023/04/07 02:20:59;;;;;;;9.30;6.77;;;;;;;;;;5003112;28;20214;-84
2023/04/07 02:23:28;;;;;;;8.23;7.33;;;;;;;;;;5008362;28;20211;-84
2023/04/07 02:25:56;;;;;;;8.27;7.03;;;;;;;;;;5007269;28;20597;-86
2023/04/07 02:28:23;;;;;;;8.30;6.57;;;;;;;;;;5001474;28;20207;-84
2023/04/07 02:30:50;;;;;;;8.57;7.10;;;;;;;;;;5010038;28;20219;-84
2023/04/07 02:33:17;;;;;;;9.53;7.00;;;;;;;;;;4998406;28;20208;-84
2023/04/07 02:35:44;;;;;;;7.07;6.20;;;;;;;;;;5000684;28;20196;-83
2023/04/07 02:38:11;;;;;;;7.37;6.67;;;;;;;;;;4993087;28;20228;-84
2023/04/07 02:40:40;;;;;;;8.20;7.20;;;;;;;;;;4992268;28;20637;-85
2023/04/07 02:43:07;;;;;;;9.47;7.20;;;;;;;;;;5007306;28;20242;-83
2023/04/07 02:45:34;;;;;;;7.43;6.33;;;;;;;;;;5013859;28;20219;-83
2023/04/07 02:48:01;;;;;;;8.57;6.93;;;;;;;;;;5005945;28;20234;-84
2023/04/07 02:50:28;;;;;;;8.40;7.10;;;;;;;;;;5009801;28;20196;-84
2023/04/07 02:52:55;;;;;;;9.53;7.90;;;;;;;;;;5011783;28;20228;-83
2023/04/07 02:55:22;;;;;;;10.17;7.77;;;;;;;;;;5014481;28;20198;-84
2023/04/07 02:57:51;;;;;;;8.57;6.93;;;;;;;;;;5014139;28;20242;-83
2023/04/07 03:00:18;;;;;;;8.60;6.80;;;;;;;;;;5004387;28;20210;-84
2023/04/07 03:02:45;;;;;;;10.20;7.40;;;;;;;;;;5005288;28;20227;-84
2023/04/07 03:05:12;;;;;;;9.77;7.67;;;;;;;;;;4996349;28;20232;-84
2023/04/07 03:07:40;;;;;;;10.20;7.27;;;;;;;;;;4995077;28;20227;-84
2023/04/07 03:10:07;;;;;;;10.27;7.60;;;;;;;;;;4997003;28;20263;-83
2023/04/07 03:12:34;;;;;;;9.37;7.87;;;;;;;;;;5012759;28;20349;-84
2023/04/07 03:15:03;;;;;;;7.83;6.97;;;;;;;;;;5010759;28;20299;-85
2023/04/07 03:17:30;;;;;;;8.53;7.10;;;;;;;;;;4995851;28;20243;-83
2023/04/07 03:19:57;;;;;;;9.77;7.27;;;;;;;;;;4997601;28;20207;-84
2023/04/07 03:22:24;;;;;;;8.50;7.60;;;;;;;;;;4995058;28;20638;-83
2023/04/07 03:24:51;;;;;;;8.37;7.47;;;;;;;;;;4998439;28;20269;-84
2023/04/07 03:27:19;;;;;;;9.90;8.53;;;;;;;;;;5014569;28;20242;-84
2023/04/07 03:29:46;;;;;;;11.43;8.63;;;;;;;;;;4998967;28;20219;-83
2023/04/07 03:32:15;;;;;;;11.97;7.93;;;;;;;;;;5012383;28;20794;-83
2023/04/07 03:34:42;;;;;;;11.77;8.13;;;;;;;;;;5015021;28;20548;-83
2023/04/07 03:37:09;;;;;;;11.37;8.30;;;;;;;;;;5006058;28;20255;-84
2023/04/07 03:39:36;;;;;;;11.13;8.90;;;;;;;;;;5011692;28;20210;-84
2023/04/07 03:42:03;;;;;;;9.63;8.57;;;;;;;;;;5014364;28;20265;-83
2023/04/07 03:44:31;;;;;;;10.57;9.03;;;;;;;;;;5014838;28;20207;-84
2023/04/07 03:46:58;;;;;;;12.77;7.83;;;;;;;;;;5008337;28;20231;-84
2023/04/07 03:49:26;;;;;;;9.73;8.63;;;;;;;;;;5001848;28;20199;-84
2023/04/07 03:51:53;;;;;;;10.57;8.50;;;;;;;;;;4997496;28;20790;-84
2023/04/07 03:54:21;;;;;;;11.50;8.10;;;;;;;;;;4996753;28;20679;-84
2023/04/07 03:56:48;;;;;;;9.90;8.33;;;;;;;;;;5000836;28;20250;-84
2023/04/07 03:59:15;;;;;;;11.93;8.40;;;;;;;;;;5013664;28;20200;-83
2023/04/07 04:01:42;;;;;;;10.60;9.47;;;;;;;;;;5002239;28;20582;-84
2023/04/07 04:04:09;;;;;;;10.00;7.97;;;;;;;;;;5000428;28;20203;-84
2023/04/07 04:06:37;;;;;;;11.67;7.57;;;;;;;;;;5012208;28;20230;-84
2023/04/07 04:09:04;;;;;;;10.13;7.83;;;;;;;;;;5013546;28;20226;-84
2023/04/07 04:11:31;;;;;;;9.30;8.07;;;;;;;;;;5002256;28;20223;-86
2023/04/07 04:13:59;;;;;;;10.17;7.93;;;;;;;;;;5004166;28;20216;-85
2023/04/07 04:16:26;;;;;;;10.00;7.87;;;;;;;;;;5010136;28;20650;-86
2023/04/07 04:18:53;;;;;;;11.00;8.30;;;;;;;;;;5002800;28;20218;-85
2023/04/07 04:21:20;;;;;;;11.47;8.40;;;;;;;;;;5009068;28;20239;-86
2023/04/07 04:23:48;;;;;;;10.90;8.90;;;;;;;;;;5000928;28;20208;-85
2023/04/07 04:26:15;;;;;;;13.13;8.97;;;;;;;;;;5002205;28;20242;-85
2023/04/07 04:28:42;;;;;;;11.63;8.97;;;;;;;;;;5014549;28;20240;-86
2023/04/07 04:31:09;;;;;;;13.27;9.40;;;;;;;;;;5012722;28;20235;-85
2023/04/07 04:33:36;;;;;;;12.30;9.17;;;;;;;;;;5002173;28;20192;-86
2023/04/07 04:36:04;;;;;;;12.47;9.13;;;;;;;;;;5004601;28;20227;-85
2023/04/07 04:38:32;;;;;;;14.20;9.13;;;;;;;;;;5002140;28;20344;-86
2023/04/07 04:41:00;;;;;;;12.30;9.60;;;;;;;;;;5010201;28;20234;-86
2023/04/07 04:43:27;;;;;;;11.83;9.57;;;;;;;;;;5007971;28;20195;-86
2023/04/07 04:45:55;;;;;;;12.37;9.03;;;;;;;;;;5012282;28;20676;-86
2023/04/07 04:48:22;;;;;;;14.47;10.10;;;;;;;;;;5010556;28;20227;-86
2023/04/07 04:50:49;;;;;;;9.87;8.77;;;;;;;;;;5014036;28;20234;-85
2023/04/07 04:53:16;;;;;;;13.80;9.43;;;;;;;;;;5014193;28;20214;-86
2023/04/07 04:55:46;;;;;;;14.57;10.73;;;;;;;;;;5013974;28;20192;-87
2023/04/07 04:58:15;;;;;;;13.67;9.93;;;;;;;;;;5014224;28;20239;-85
2023/04/07 05:00:42;;;;;;;12.07;9.10;;;;;;;;;;5013982;28;20207;-87
2023/04/07 05:03:09;;;;;;;15.30;9.80;;;;;;;;;;4999986;28;20208;-86
2023/04/07 05:05:36;;;;;;;14.07;9.67;;;;;;;;;;5001085;28;20246;-86
2023/04/07 05:08:03;;;;;;;14.17;11.03;;;;;;;;;;5013511;28;20235;-87
2023/04/07 05:10:30;;;;;;;12.67;10.37;;;;;;;;;;5007051;28;20605;-86
2023/04/07 05:12:57;;;;;;;15.07;10.60;;;;;;;;;;4994597;28;20235;-87
2023/04/07 05:15:26;;;;;;;14.60;10.77;;;;;;;;;;4999737;28;20192;-87
2023/04/07 05:17:53;;;;;;;13.13;10.47;;;;;;;;;;5010376;28;20234;-87
2023/04/07 05:20:20;;;;;;;15.53;10.57;;;;;;;;;;5015343;28;20269;-86
2023/04/07 05:22:47;;;;;;;14.80;10.47;;;;;;;;;;5014274;28;20239;-87
2023/04/07 05:25:14;;;;;;;12.13;10.03;;;;;;;;;;5015931;28;20633;-87
2023/04/07 05:27:41;;;;;;;14.17;10.53;;;;;;;;;;5014835;28;20273;-86
2023/04/07 05:30:09;;;;;;;13.90;10.47;;;;;;;;;;5016910;28;20265;-86
2023/04/07 05:32:37;;;;;;;15.83;11.30;;;;;;;;;;5013348;28;20699;-87
2023/04/07 05:35:05;;;;;;;16.20;10.53;;;;;;;;;;4997971;28;20671;-86
2023/04/07 05:37:38;;;;;;;13.60;10.90;;;;;;;;;;5013876;28;20253;-87
2023/04/07 05:40:05;;;;;;;17.63;10.70;;;;;;;;;;5014455;28;20191;-87
2023/04/07 05:42:32;;;;;;;13.80;10.43;;;;;;;;;;5013366;28;20235;-86
2023/04/07 05:44:59;;;;;;;13.77;10.50;;;;;;;;;;5009258;28;20212;-87
2023/04/07 05:47:26;;;;;;;15.53;10.80;;;;;;;;;;5013625;28;20235;-87
2023/04/07 05:49:55;;;;;;;18.00;12.13;;;;;;;;;;5014401;28;20207;-87
2023/04/07 05:52:22;;;;;;;17.17;11.20;;;;;;;;;;5013884;28;20245;-87
2023/04/07 05:54:49;;;;;;;17.40;11.93;;;;;;;;;;5014731;28;20207;-87
2023/04/07 05:57:16;;;;;;;17.73;11.33;;;;;;;;;;5000872;28;20239;-87
2023/04/07 05:59:43;;;;;;;18.70;12.23;;;;;;;;;;4995043;28;20220;-87
2023/04/07 06:02:10;;;;;;;14.70;10.93;;;;;;;;;;5006456;28;20239;-87
2023/04/07 06:04:38;;;;;;;18.93;11.70;;;;;;;;;;5014362;28;20203;-87
2023/04/07 06:07:08;;;;;;;15.17;11.67;;;;;;;;;;5000657;28;20231;-88
2023/04/07 06:09:35;;;;;;;16.30;11.80;;;;;;;;;;5005151;28;20262;-87
2023/04/07 06:12:03;;;;;;;17.13;12.23;;;;;;;;;;5013960;28;20235;-87
2023/04/07 06:14:31;;;;;;;19.63;12.63;;;;;;;;;;5003747;28;20259;-87
2023/04/07 06:16:58;;;;;;;16.50;12.37;;;;;;;;;;5002689;28;20258;-87
2023/04/07 06:19:26;;;;;;;18.20;11.53;;;;;;;;;;5014222;28;20655;-87
2023/04/07 06:21:53;;;;;;;15.43;11.90;;;;;;;;;;5014494;28;20237;-88
2023/04/07 06:24:24;;;;;;;15.53;11.47;;;;;;;;;;5011168;28;20231;-88
2023/04/07 06:26:51;;;;;;;17.13;11.97;;;;;;;;;;4994002;28;20331;-87
2023/04/07 06:29:18;;;;;;;14.50;10.73;;;;;;;;;;4995268;28;20219;-87
2023/04/07 06:31:50;;;;;;;16.43;10.47;;;;;;;;;;4993731;28;20227;-88
2023/04/07 06:34:17;;;;;;;14.87;10.37;;;;;;;;;;4994343;28;20184;-88
2023/04/07 06:36:44;;;;;;;15.30;11.60;;;;;;;;;;4993876;28;20247;-88
2023/04/07 06:39:11;;;;;;;13.30;10.73;;;;;;;;;;4994295;28;20212;-90
2023/04/07 06:41:41;;;;;;;13.53;9.53;;;;;;;;;;4998470;28;20707;-88
2023/04/07 06:44:10;;;;;;;92.13;37.80;;;;;;;;;;5016264;28;20207;-88
2023/04/07 06:46:37;;;;;;;44.47;22.93;;;;;;;;;;5014130;28;20236;-89
2023/04/07 06:49:04;;;;;;;23.50;14.20;;;;;;;;;;5015426;28;20206;-90
2023/04/07 06:51:31;;;;;;;18.07;12.10;;;;;;;;;;5012186;28;20242;-89
2023/04/07 06:53:59;;;;;;;16.10;11.30;;;;;;;;;;5014708;28;20285;-89
2023/04/07 06:56:27;;;;;;;13.70;10.37;;;;;;;;;;5007552;28;20239;-90
2023/04/07 06:58:55;;;;;;;13.43;9.87;;;;;;;;;;5012811;28;20199;-90
2023/04/07 07:01:30;;;;;;;11.20;8.87;;;;;;;;;;5014215;28;20246;-89
2023/04/07 07:03:59;;;;;;;14.30;9.77;;;;;;;;;;5014080;28;20230;-86
2023/04/07 07:06:26;;;;;;;13.67;9.80;;;;;;;;;;5013907;28;20235;-88
2023/04/07 07:08:53;;;;;;;12.07;10.10;;;;;;;;;;4997248;28;20641;-89
2023/04/07 07:11:20;;;;;;;14.70;9.87;;;;;;;;;;4993873;28;20315;-88
2023/04/07 07:13:56;;;;;;;13.40;11.43;;;;;;;;;;5002709;28;20206;-88
2023/04/07 07:16:23;;;;;;;10.77;9.50;;;;;;;;;;5013125;28;20265;-88
2023/04/07 07:18:50;;;;;;;12.63;10.00;;;;;;;;;;5003530;28;20287;-89
2023/04/07 07:21:18;;;;;;;12.63;10.10;;;;;;;;;;4993269;28;20259;-88
2023/04/07 07:23:45;;;;;;;11.83;9.90;;;;;;;;;;5013627;28;20652;-88
2023/04/07 07:26:12;;;;;;;12.90;9.33;;;;;;;;;;5012982;28;20293;-87
2023/04/07 07:28:40;;;;;;;16.27;11.83;;;;;;;;;;5014961;28;20295;-88
2023/04/07 07:31:13;;;;;;;14.37;10.27;;;;;;;;;;5016068;28;20242;-88
2023/04/07 07:33:42;;;;;;;10.97;9.40;;;;;;;;;;4999400;28;20664;-91
2023/04/07 07:36:09;;;;;;;11.80;10.10;;;;;;;;;;4996850;28;20315;-87
2023/04/07 07:38:37;;;;;;;13.23;10.10;;;;;;;;;;4997509;28;20282;-88
2023/04/07 07:41:04;;;;;;;17.67;11.20;;;;;;;;;;5012721;28;20235;-88
2023/04/07 07:43:31;;;;;;;13.97;9.73;;;;;;;;;;5019593;28;20219;-88
2023/04/07 07:45:58;;;;;;;14.07;10.50;;;;;;;;;;5018595;28;20231;-88
2023/04/07 07:48:26;;;;;;;12.57;10.00;;;;;;;;;;5016567;28;20200;-87
2023/04/07 07:50:55;;;;;;;10.77;9.47;;;;;;;;;;5016038;28;20204;-89
2023/04/07 07:53:22;;;;;;;13.20;10.43;;;;;;;;;;5011472;28;20565;-85
2023/04/07 07:55:49;;;;;;;13.83;9.37;;;;;;;;;;5014086;28;20196;-86
2023/04/07 07:58:16;;;;;;;13.63;10.23;;;;;;;;;;4995491;28;20712;-85
2023/04/07 08:00:44;;;;;;;16.33;10.97;;;;;;;;;;4995757;28;20200;-86
2023/04/07 08:03:11;;;;;;;13.13;10.27;;;;;;;;;;4995428;28;20208;-86
2023/04/07 08:05:39;;;;;;;12.30;9.77;;;;;;;;;;4995409;28;20208;-85
2023/04/07 08:08:07;;;;;;;11.90;9.80;;;;;;;;;;4995460;28;20227;-89
2023/04/07 08:10:34;;;;;;;14.23;9.73;;;;;;;;;;4996207;28;20208;-86
2023/04/07 08:13:01;;;;;;;14.87;10.20;;;;;;;;;;4995179;28;20247;-86
2023/04/07 08:15:28;;;;;;;10.53;8.80;;;;;;;;;;4995610;28;20696;-86
2023/04/07 08:17:55;;;;;;;14.93;9.80;;;;;;;;;;4994309;28;20232;-85
2023/04/07 08:20:22;;;;;;;12.30;10.37;;;;;;;;;;4995878;28;20212;-86
2023/04/07 08:22:50;;;;;;;12.13;9.17;;;;;;;;;;4995050;28;20243;-85
2023/04/07 08:25:18;;;;;;;12.03;9.47;;;;;;;;;;4995271;28;20493;-85
2023/04/07 08:27:45;;;;;;;10.93;9.03;;;;;;;;;;4994415;28;20590;-85
2023/04/07 08:30:12;;;;;;;11.47;9.70;;;;;;;;;;4995049;28;20208;-84
2023/04/07 08:32:40;;;;;;;10.87;8.40;;;;;;;;;;4994057;28;20235;-86
2023/04/07 08:35:07;;;;;;;11.07;9.03;;;;;;;;;;4994901;28;20207;-85
2023/04/07 08:37:34;;;;;;;12.13;9.17;;;;;;;;;;4993944;28;20231;-84
2023/04/07 08:40:03;;;;;;;12.40;8.90;;;;;;;;;;4985981;28;20205;-84
2023/04/07 08:42:31;;;;;;;13.80;9.57;;;;;;;;;;4989596;28;20243;-85
2023/04/07 08:45:00;;;;;;;10.40;8.87;;;;;;;;;;4994577;28;20259;-84
2023/04/07 08:47:28;;;;;;;12.50;9.00;;;;;;;;;;4993705;28;20236;-85
2023/04/07 08:49:57;;;;;;;10.50;8.87;;;;;;;;;;4994621;28;20227;-85
2023/04/07 08:52:29;;;;;;;12.23;8.97;;;;;;;;;;4993859;28;20667;-85
2023/04/07 08:54:57;;;;;;;10.17;8.43;;;;;;;;;;4994520;28;20205;-85
2023/04/07 08:57:25;;;;;;;12.07;9.80;;;;;;;;;;4993874;28;20267;-85
2023/04/07 08:59:53;;;;;;;11.97;9.40;;;;;;;;;;4994571;28;20688;-85
2023/04/07 09:02:20;;;;;;;10.27;8.10;;;;;;;;;;4994348;28;20240;-85
2023/04/07 09:04:47;;;;;;;11.70;8.80;;;;;;;;;;4994781;28;20200;-85
2023/04/07 09:07:14;;;;;;;10.70;8.20;;;;;;;;;;4993999;28;20239;-85
2023/04/07 09:09:41;;;;;;;12.97;8.57;;;;;;;;;;4995445;28;20212;-86
2023/04/07 09:12:08;;;;;;;11.33;9.33;;;;;;;;;;4993578;28;20243;-85
2023/04/07 09:14:37;;;;;;;13.13;8.80;;;;;;;;;;4994324;28;20211;-85
2023/04/07 09:17:04;;;;;;;10.00;8.63;;;;;;;;;;4993572;28;20247;-85
2023/04/07 09:19:31;;;;;;;10.90;8.30;;;;;;;;;;4994378;28;20200;-85
2023/04/07 09:21:58;;;;;;;10.57;8.10;;;;;;;;;;4993456;28;20607;-86
2023/04/07 09:24:26;;;;;;;11.60;8.80;;;;;;;;;;4994316;28;20216;-86
2023/04/07 09:27:09;;;;;;;13.03;8.70;;;;;;;;;;4993601;28;20705;-86
2023/04/07 09:29:37;;;;;;;11.27;8.90;;;;;;;;;;4994186;28;20633;-86
2023/04/07 09:32:05;;;;;;;13.93;8.43;;;;;;;;;;4993511;28;20238;-85
2023/04/07 09:34:33;;;;;;;11.43;9.10;;;;;;;;;;4994303;28;20208;-85
2023/04/07 09:37:00;;;;;;;10.13;8.27;;;;;;;;;;4993530;28;20725;-86
2023/04/07 09:39:27;;;;;;;14.97;9.03;;;;;;;;;;4994009;28;20200;-86
2023/04/07 09:41:54;;;;;;;12.43;9.13;;;;;;;;;;4993042;28;20610;-85
2023/04/07 09:44:22;;;;;;;11.87;8.60;;;;;;;;;;4993901;28;20197;-85
2023/04/07 09:46:51;;;;;;;10.73;8.57;;;;;;;;;;4993404;28;20244;-86
2023/04/07 09:49:19;;;;;;;9.47;8.27;;;;;;;;;;4994034;28;20212;-85
2023/04/07 09:51:56;;;;;;;14.07;9.27;;;;;;;;;;4993091;28;20282;-86
2023/04/07 09:54:33;;;;;;;10.70;8.10;;;;;;;;;;4995255;28;20687;-86
2023/04/07 09:57:01;;;;;;;13.27;9.33;;;;;;;;;;4994270;28;20232;-85
2023/04/07 09:59:28;;;;;;;11.47;8.73;;;;;;;;;;4996248;28;20661;-86
2023/04/07 10:01:57;;;;;;;16.83;9.60;;;;;;;;;;4994045;28;20263;-85
2023/04/07 10:04:25;;;;;;;12.60;9.93;;;;;;;;;;4994425;28;20212;-86
2023/04/07 10:06:53;;;;;;;10.60;9.43;;;;;;;;;;4993668;28;20240;-85
2023/04/07 10:09:20;;;;;;;10.57;8.27;;;;;;;;;;4993774;28;20204;-85
2023/04/07 10:11:47;;;;;;;13.90;9.30;;;;;;;;;;4993141;28;20334;-85
2023/04/07 10:14:15;;;;;;;12.40;9.70;;;;;;;;;;4993822;28;20216;-86
2023/04/07 10:16:42;;;;;;;11.50;9.27;;;;;;;;;;4993707;28;20236;-86
2023/04/07 10:19:11;;;;;;;13.50;9.83;;;;;;;;;;4994862;28;20236;-85
2023/04/07 10:21:41;;;;;;;11.40;8.90;;;;;;;;;;4994922;28;20235;-86
2023/04/07 10:24:18;;;;;;;13.70;9.70;;;;;;;;;;4994992;28;20239;-86
2023/04/07 10:26:47;;;;;;;13.30;9.03;;;;;;;;;;4994224;28;20708;-86
2023/04/07 10:29:16;;;;;;;11.40;8.67;;;;;;;;;;4996993;28;20202;-86
2023/04/07 10:31:44;;;;;;;12.67;9.13;;;;;;;;;;4995273;28;20294;-88
2023/04/07 10:34:12;;;;;;;12.90;9.43;;;;;;;;;;4996943;28;20299;-85
2023/04/07 10:37:08;;;;;;;11.20;9.17;;;;;;;;;;4994222;28;20235;-86
2023/04/07 10:39:36;;;;;;;11.90;8.77;;;;;;;;;;4994964;28;20212;-86
2023/04/07 10:42:03;;;;;;;8.97;7.83;;;;;;;;;;4995043;28;20244;-86
2023/04/07 10:44:48;;;;;;;11.17;8.23;;;;;;;;;;4995636;28;20711;-85
2023/04/07 10:47:16;;;;;;;9.20;8.03;;;;;;;;;;4994374;28;20704;-85
2023/04/07 10:49:58;;;;;;;10.27;7.87;;;;;;;;;;4994209;28;20216;-86
2023/04/07 10:52:26;;;;;;;7.13;5.67;;;;;;;;;;4992676;28;20239;-85
2023/04/07 10:55:12;;;;;;;7.87;6.13;;;;;;;;;;4993493;28;20219;-85
2023/04/07 10:57:39;;;;;;;9.20;6.23;;;;;;;;;;4993154;28;20286;-86
2023/04/07 11:00:16;;;;;;;6.63;6.00;;;;;;;;;;4993921;28;20444;-86
2023/04/07 11:02:43;;;;;;;7.93;6.87;;;;;;;;;;4993521;28;20830;-86
2023/04/07 11:05:20;;;;;;;8.53;6.90;;;;;;;;;;4998037;28;20219;-86
2023/04/07 11:07:50;;;;;;;8.57;7.10;;;;;;;;;;4997877;28;20234;-85
2023/04/07 11:10:18;;;;;;;8.87;6.67;;;;;;;;;;4998653;28;20216;-86
2023/04/07 11:12:45;;;;;;;6.70;6.10;;;;;;;;;;4996450;28;20243;-86
2023/04/07 11:15:19;;;;;;;7.47;5.57;;;;;;;;;;4997072;28;20204;-87
2023/04/07 11:17:46;;;;;;;5.67;5.17;;;;;;;;;;4996626;28;20262;-87
2023/04/07 11:20:13;;;;;;;8.20;6.17;;;;;;;;;;4997112;28;20208;-87
2023/04/07 11:22:40;;;;;;;6.83;6.00;;;;;;;;;;4996618;28;20239;-87
2023/04/07 11:25:26;;;;;;;6.83;6.13;;;;;;;;;;4997584;28;20248;-87
2023/04/07 11:27:53;;;;;;;9.23;5.93;;;;;;;;;;4996943;28;20240;-87
2023/04/07 11:30:21;;;;;;;8.97;6.17;;;;;;;;;;4997891;28;20204;-87
2023/04/07 11:32:50;;;;;;;9.30;6.40;;;;;;;;;;4997345;28;20243;-87
2023/04/07 11:35:17;;;;;;;6.37;5.57;;;;;;;;;;5006395;28;20239;-87
2023/04/07 11:37:44;;;;;;;8.23;6.50;;;;;;;;;;5015897;28;20258;-87
2023/04/07 11:40:15;;;;;;;6.53;5.83;;;;;;;;;;5016482;28;20226;-86
2023/04/07 11:42:45;;;;;;;6.57;5.00;;;;;;;;;;5015584;28;20268;-87
2023/04/07 11:45:17;;;;;;;7.47;6.60;;;;;;;;;;5017271;28;20200;-87
2023/04/07 11:47:45;;;;;;;5.17;4.57;;;;;;;;;;5011967;28;20231;-86
2023/04/07 11:50:12;;;;;;;5.50;5.00;;;;;;;;;;5001265;28;20223;-87
2023/04/07 11:52:42;;;;;;;5.77;5.10;;;;;;;;;;5001421;28;20609;-87
2023/04/07 11:55:17;;;;;;;4.80;4.40;;;;;;;;;;4998910;28;20243;-87
2023/04/07 11:57:45;;;;;;;5.93;4.97;;;;;;;;;;4999318;28;20235;-87
2023/04/07 12:00:14;;;;;;;5.47;4.03;;;;;;;;;;5001320;28;20208;-87
2023/04/07 12:02:42;;;;;;;3.87;3.47;;;;;;;;;;4999598;28;20236;-86
2023/04/07 12:05:10;;;;;;;4.03;3.70;;;;;;;;;;4997655;28;20726;-87
2023/04/07 12:07:37;;;;;;;4.80;4.13;;;;;;;;;;4997067;28;20275;-86
2023/04/07 12:10:18;;;;;;;5.10;3.90;;;;;;;;;;4997976;28;20208;-87
2023/04/07 12:12:47;;;;;;;4.17;3.40;;;;;;;;;;4996565;28;20236;-87
2023/04/07 12:15:14;;;;;;;4.77;3.33;;;;;;;;;;4996739;28;20239;-87
2023/04/07 12:17:45;;;;;;;4.67;3.00;;;;;;;;;;4996384;28;20240;-87
2023/04/07 12:20:12;;;;;;;3.97;3.20;;;;;;;;;;4997407;28;20208;-87
2023/04/07 12:22:39;;;;;;;2.67;2.47;;;;;;;;;;4996236;28;20246;-87
2023/04/07 12:25:07;;;;;;;2.80;2.60;;;;;;;;;;4997893;28;20476;-86
2023/04/07 12:27:34;;;;;;;3.27;2.97;;;;;;;;;;4995404;28;20236;-86
2023/04/07 12:30:03;;;;;;;2.93;2.73;;;;;;;;;;4996364;28;20552;-87
2023/04/07 12:32:31;;;;;;;2.77;2.57;;;;;;;;;;4995024;28;20243;-87
2023/04/07 12:34:58;;;;;;;2.87;2.67;;;;;;;;;;4999142;28;20779;-86
2023/04/07 12:37:26;;;;;;;3.23;2.93;;;;;;;;;;4995512;28;20669;-87
2023/04/07 12:39:53;;;;;;;3.10;2.80;;;;;;;;;;4996063;28;20307;-87
2023/04/07 12:42:20;;;;;;;3.27;2.70;;;;;;;;;;4995358;28;20258;-87
2023/04/07 12:44:47;;;;;;;3.47;3.17;;;;;;;;;;4995477;28;20204;-86
2023/04/07 12:47:16;;;;;;;4.07;3.30;;;;;;;;;;4995024;28;20351;-86
2023/04/07 12:49:43;;;;;;;3.50;3.20;;;;;;;;;;4995871;28;20204;-87
2023/04/07 12:52:10;;;;;;;3.33;3.03;;;;;;;;;;4995345;28;20232;-87
2023/04/07 12:54:38;;;;;;;3.13;2.77;;;;;;;;;;4995833;28;20626;-87
2023/04/07 12:57:05;;;;;;;3.13;2.77;;;;;;;;;;4996666;28;20677;-86
2023/04/07 12:59:33;;;;;;;2.70;2.50;;;;;;;;;;4997431;28;20204;-87
2023/04/07 13:02:00;;;;;;;3.13;2.90;;;;;;;;;;4996469;28;20302;-87
2023/04/07 13:04:30;;;;;;;3.77;3.37;;;;;;;;;;5035426;22;20227;-84
2023/04/07 13:06:57;;;;;;;3.50;3.20;;;;;;;;;;5042911;28;20708;-84
2023/04/07 13:09:25;;;;;;;3.83;3.40;;;;;;;;;;5053013;28;20304;-84
2023/04/07 13:11:52;;;;;;;4.13;3.80;;;;;;;;;;5051997;28;20648;-84
2023/04/07 13:14:19;;;;;;;4.43;4.03;;;;;;;;;;5052670;28;20596;-83
2023/04/07 13:16:46;;;;;;;3.97;3.67;;;;;;;;;;5052074;28;20709;-84
2023/04/07 13:19:13;;;;;;;4.40;4.00;;;;;;;;;;5052618;28;20198;-84
2023/04/07 13:21:42;;;;;;;4.63;4.23;;;;;;;;;;5052083;28;20262;-83
2023/04/07 13:24:09;;;;;;;4.40;4.00;;;;;;;;;;5052555;28;20233;-84
2023/04/07 13:26:36;;;;;;;4.20;3.80;;;;;;;;;;5051435;28;20241;-83
2023/04/07 13:29:03;;;;;;;4.70;4.30;;;;;;;;;;5052141;28;20252;-84
2023/04/07 13:31:30;;;;;;;5.10;4.60;;;;;;;;;;5051800;28;20260;-84
2023/04/07 13:33:57;;;;;;;5.13;4.63;;;;;;;;;;5052099;28;20229;-84
2023/04/07 13:36:26;;;;;;;5.03;4.53;;;;;;;;;;5051735;28;20229;-84
2023/04/07 13:38:55;;;;;;;5.03;4.40;;;;;;;;;;5052292;28;20571;-83
2023/04/07 13:41:22;;;;;;;3.80;3.50;;;;;;;;;;5051660;28;20233;-83
2023/04/07 13:43:49;;;;;;;4.20;3.80;;;;;;;;;;5052246;28;20229;-83
2023/04/07 13:46:17;;;;;;;3.83;3.50;;;;;;;;;;5051433;28;20713;-84
2023/04/07 13:48:44;;;;;;;3.33;3.13;;;;;;;;;;5052230;28;20313;-84
2023/04/07 13:51:11;;;;;;;3.40;2.77;;;;;;;;;;5051383;28;20298;-84
2023/04/07 13:53:38;;;;;;;3.80;3.50;;;;;;;;;;5052098;28;20597;-84
2023/04/07 13:56:07;;;;;;;4.23;3.83;;;;;;;;;;5051634;28;20245;-84
2023/04/07 13:58:34;;;;;;;4.33;3.93;;;;;;;;;;5051828;28;20685;-84
2023/04/07 14:01:01;;;;;;;5.10;4.60;;;;;;;;;;5051396;28;20234;-85
2023/04/07 14:03:28;;;;;;;4.77;4.23;;;;;;;;;;5051605;28;20710;-85
2023/04/07 14:05:59;;;;;;;4.93;4.43;;;;;;;;;;5051278;28;20210;-84
2023/04/07 14:08:26;;;;;;;4.30;4.00;;;;;;;;;;5052080;28;20206;-84
2023/04/07 14:10:53;;;;;;;4.27;3.93;;;;;;;;;;5051218;28;20216;-84
2023/04/07 14:13:22;;;;;;;4.37;3.97;;;;;;;;;;5051651;28;20214;-84
2023/04/07 14:15:52;;;;;;;4.87;4.47;;;;;;;;;;5051124;28;20686;-84
2023/04/07 14:18:19;;;;;;;5.40;4.83;;;;;;;;;;5051950;28;20244;-84
2023/04/07 14:20:47;;;;;;;5.80;4.63;;;;;;;;;;5051334;28;20226;-84
2023/04/07 14:23:14;;;;;;;5.13;4.63;;;;;;;;;;5051369;28;20226;-84
2023/04/07 14:25:41;;;;;;;5.40;4.90;;;;;;;;;;5051453;28;20210;-84
2023/04/07 14:28:08;;;;;;;4.70;4.30;;;;;;;;;;5051461;28;20574;-84
2023/04/07 14:30:38;;;;;;;4.40;4.00;;;;;;;;;;5051459;28;20577;-84
2023/04/07 14:33:05;;;;;;;3.73;3.43;;;;;;;;;;5050992;28;21034;-84
2023/04/07 14:35:32;;;;;;;4.37;3.97;;;;;;;;;;5051884;28;20241;-84
2023/04/07 14:37:59;;;;;;;4.10;3.70;;;;;;;;;;5051692;28;20226;-84
2023/04/07 14:40:26;;;;;;;4.03;3.73;;;;;;;;;;5035714;28;20211;-84